Weather at Elliston Airport

Public forecast

Using degrees Celsius for public forecast. Weather courtesy of forecast.io.

Closest aviation weather report (METAR) to Elliston Airport

Closest report is Ceduna Airport, 108.6 nm (201.1 km) NW. Retrieved 2021/06/13 09:00 UTC (58 minutes ago):

YCDU 130900Z AUTO 15003KT 9999 // BKN115 12/07 Q1009

Closest aviation forecast (TAF) to Elliston Airport

Forecast is more than 12 hours old.

Closest forecast is Whyalla Airport, 135.6 nm (251.2 km) ENE. Retrieved 2018/11/15 18:03 UTC (3 years ago):

TAF YWHA 151701Z 1518/1608 VRB05KT CAVOK FM152300 18012KT CAVOK FM160200 18018KT CAVOK